createdAt,value
2022-11-02T00:04:08.568Z,88.62
2022-11-02T00:09:12.044Z,88.20
2022-11-02T00:14:16.965Z,87.20
2022-11-02T00:19:20.440Z,87.15
2022-11-02T00:24:24.022Z,87.16
2022-11-02T00:29:33.644Z,86.78
2022-11-02T00:34:37.386Z,86.46
2022-11-02T00:39:40.810Z,86.60
2022-11-02T00:44:45.563Z,87.09
2022-11-02T00:49:49.108Z,88.25
2022-11-02T00:54:53.109Z,88.03
2022-11-02T00:59:58.066Z,88.30
2022-11-02T01:05:01.512Z,88.06
2022-11-02T01:10:07.068Z,87.71
2022-11-02T01:15:12.536Z,87.25
2022-11-02T01:20:16.087Z,87.36
2022-11-02T01:25:19.488Z,87.08
2022-11-02T01:30:24.215Z,86.81
2022-11-02T01:35:27.541Z,86.60
2022-11-02T01:40:38.209Z,86.75
2022-11-02T01:45:42.990Z,86.30
2022-11-02T01:50:46.852Z,86.34
2022-11-02T01:55:52.261Z,86.15
2022-11-02T02:00:57.651Z,86.71
2022-11-02T02:06:07.856Z,86.27
2022-11-02T02:11:27.916Z,85.93
2022-11-02T02:22:07.210Z,86.25
2022-11-02T02:27:17.667Z,86.26
2022-11-02T02:32:29.883Z,85.96
2022-11-02T02:37:41.870Z,86.27
2022-11-02T02:42:49.463Z,86.16
2022-11-02T02:48:00.554Z,85.97
2022-11-02T02:53:07.704Z,85.74
2022-11-02T02:58:18.504Z,85.75
2022-11-02T03:03:26.619Z,85.77
2022-11-02T03:08:30.286Z,85.99
2022-11-02T03:13:44.684Z,85.73
2022-11-02T03:18:54.712Z,84.22
2022-11-02T03:24:03.583Z,84.00
2022-11-02T03:29:12.732Z,83.84
2022-11-02T03:34:26.625Z,84.58
2022-11-02T03:39:38.361Z,83.94
2022-11-02T03:44:43.377Z,83.13
2022-11-02T03:49:51.247Z,82.17
2022-11-02T03:55:01.583Z,82.32
2022-11-02T04:00:12.535Z,82.68
2022-11-02T04:05:29.594Z,82.32
2022-11-02T04:10:35.914Z,82.13
2022-11-02T04:15:39.469Z,82.66
2022-11-02T04:20:44.259Z,82.20
2022-11-02T04:25:47.667Z,82.11
2022-11-02T04:30:51.172Z,81.72
2022-11-02T04:36:00.887Z,81.42
2022-11-02T04:41:22.348Z,81.42
2022-11-02T04:46:30.132Z,80.09
2022-11-02T04:51:36.044Z,79.92
2022-11-02T04:56:39.567Z,80.08
2022-11-02T05:01:43.716Z,80.18
2022-11-02T05:06:48.936Z,79.92
2022-11-02T05:11:54.209Z,79.56
2022-11-02T05:16:58.282Z,80.07
2022-11-02T05:22:03.449Z,79.91
2022-11-02T05:27:12.056Z,79.53
2022-11-02T05:32:16.318Z,79.17
2022-11-02T05:37:21.343Z,79.43
2022-11-02T05:42:25.837Z,78.19
2022-11-02T05:47:29.494Z,78.49
2022-11-02T05:52:36.007Z,77.86
2022-11-02T05:57:39.386Z,77.73
2022-11-02T06:02:42.836Z,77.65
2022-11-02T06:07:47.571Z,77.79
2022-11-02T06:12:56.022Z,77.18
2022-11-02T06:18:00.131Z,75.86
2022-11-02T06:23:05.152Z,74.52
2022-11-02T06:28:08.730Z,73.36
2022-11-02T06:33:12.507Z,71.58
2022-11-02T06:38:18.082Z,70.94
2022-11-02T06:43:21.672Z,70.28
2022-11-02T06:48:29.856Z,69.26
2022-11-02T06:53:38.011Z,67.39
2022-11-02T06:58:41.334Z,67.42
2022-11-02T07:03:44.669Z,67.32
2022-11-02T07:08:49.422Z,66.98
2022-11-02T07:13:53.022Z,66.49
2022-11-02T07:18:56.377Z,65.37
2022-11-02T07:24:01.164Z,63.63
2022-11-02T07:29:04.633Z,63.03
2022-11-02T07:34:10.632Z,61.92
2022-11-02T07:39:18.998Z,62.01
2022-11-02T07:44:22.386Z,61.50
2022-11-02T07:49:31.736Z,60.65
2022-11-02T07:54:39.552Z,59.84
2022-11-02T07:59:46.921Z,59.21
2022-11-02T08:04:50.285Z,57.84
2022-11-02T08:09:55.133Z,57.80
2022-11-02T08:15:01.237Z,56.61
2022-11-02T08:20:09.654Z,55.96
2022-11-02T08:30:22.662Z,54.60
2022-11-02T08:35:26.064Z,53.64
2022-11-02T08:40:31.228Z,52.96
2022-11-02T08:46:12.595Z,53.03
2022-11-02T08:50:59.645Z,51.41
2022-11-02T08:56:04.715Z,50.88
2022-11-02T09:01:08.126Z,49.99
2022-11-02T09:06:11.481Z,49.50
2022-11-02T09:11:16.540Z,48.27
2022-11-02T09:16:19.948Z,48.25
2022-11-02T09:21:23.329Z,47.51
2022-11-02T09:26:28.717Z,46.91
2022-11-02T09:31:32.046Z,46.64
2022-11-02T09:36:35.690Z,46.13
2022-11-02T09:41:44.841Z,46.52
2022-11-02T09:46:53.246Z,44.85
2022-11-02T09:52:24.514Z,44.65
2022-11-02T09:57:31.667Z,44.69
2022-11-02T10:02:50.388Z,43.64
2022-11-02T10:08:08.454Z,43.41
2022-11-02T10:13:24.018Z,43.14
2022-11-02T10:18:29.969Z,42.63
2022-11-02T10:23:35.947Z,42.05
2022-11-02T10:28:44.354Z,42.28
2022-11-02T10:33:47.814Z,41.84
2022-11-02T10:39:04.181Z,40.65
2022-11-02T10:44:26.744Z,41.22
2022-11-02T10:50:00.864Z,41.98
2022-11-02T10:55:04.756Z,41.28
2022-11-02T11:00:30.569Z,40.54
2022-11-02T11:05:34.951Z,41.06
2022-11-02T11:10:39.723Z,41.08
2022-11-02T11:20:49.394Z,40.75
2022-11-02T11:25:58.517Z,41.06
2022-11-02T11:31:13.099Z,40.41
2022-11-02T11:41:36.173Z,40.27
2022-11-02T11:46:47.374Z,40.25
2022-11-02T11:51:53.482Z,40.00
2022-11-02T11:56:58.897Z,40.10
2022-11-02T12:02:04.150Z,41.35
2022-11-02T12:07:44.000Z,40.80
2022-11-02T12:12:59.954Z,41.24
2022-11-02T12:18:18.703Z,41.15
2022-11-02T12:23:36.746Z,41.42
2022-11-02T12:28:45.729Z,41.97
2022-11-02T12:34:05.361Z,42.72
2022-11-02T12:39:09.818Z,42.82
2022-11-02T12:44:29.713Z,44.00
2022-11-02T12:49:42.674Z,44.03
2022-11-02T12:54:49.327Z,43.85
2022-11-02T12:59:55.772Z,44.62
2022-11-02T13:05:05.327Z,44.80
2022-11-02T13:10:18.809Z,45.71
2022-11-02T13:15:25.327Z,45.42
2022-11-02T13:20:35.010Z,45.77
2022-11-02T13:25:42.775Z,46.66
2022-11-02T13:30:48.183Z,47.00
2022-11-02T13:35:54.343Z,47.98
2022-11-02T13:41:15.580Z,48.58
2022-11-02T13:46:39.666Z,49.15
2022-11-02T13:51:47.572Z,49.86
2022-11-02T13:56:55.989Z,50.56
2022-11-02T14:02:03.111Z,50.77
2022-11-02T14:07:10.799Z,51.20
2022-11-02T14:12:29.325Z,51.62
2022-11-02T14:18:02.354Z,51.93
2022-11-02T14:23:41.810Z,52.47
2022-11-02T14:28:45.470Z,52.59
2022-11-02T14:34:04.520Z,52.90
2022-11-02T14:39:20.654Z,52.98
2022-11-02T14:44:51.170Z,53.28
2022-11-02T14:49:57.994Z,53.64
2022-11-02T14:55:05.850Z,54.07
2022-11-02T15:00:21.116Z,54.19
2022-11-02T15:05:29.671Z,54.69
2022-11-02T15:10:42.064Z,54.73
2022-11-02T15:15:46.091Z,54.93
2022-11-02T15:21:25.535Z,55.33
2022-11-02T15:26:44.032Z,55.62
2022-11-02T15:31:54.037Z,55.76
2022-11-02T15:36:59.849Z,56.21
2022-11-02T15:42:08.871Z,56.31
2022-11-02T15:47:23.795Z,56.60
2022-11-02T15:53:01.686Z,56.88
2022-11-02T15:58:18.307Z,57.40
2022-11-02T16:03:21.799Z,57.50
2022-11-02T16:08:27.052Z,57.63
2022-11-02T16:13:48.708Z,58.01
2022-11-02T16:18:58.778Z,58.86
2022-11-02T16:24:02.227Z,58.63
2022-11-02T16:29:09.629Z,59.03
2022-11-02T16:34:21.010Z,59.49
2022-11-02T16:39:28.991Z,60.52
2022-11-02T16:44:35.390Z,60.29
2022-11-02T16:49:59.501Z,61.47
2022-11-02T16:55:03.800Z,61.32
2022-11-02T17:00:19.467Z,61.54
2022-11-02T17:05:24.714Z,62.52
2022-11-02T17:10:30.153Z,62.61
2022-11-02T17:15:37.498Z,62.40
2022-11-02T17:20:41.437Z,62.75
2022-11-02T17:25:44.837Z,63.40
2022-11-02T17:30:50.235Z,64.81
2022-11-02T17:35:55.631Z,63.64
2022-11-02T17:41:01.221Z,63.80
2022-11-02T17:46:06.318Z,63.12
2022-11-02T17:51:12.052Z,62.50
2022-11-02T17:56:15.898Z,62.82
2022-11-02T18:01:20.808Z,62.23
2022-11-02T18:06:24.234Z,63.66
2022-11-02T18:11:27.966Z,64.17
2022-11-02T18:16:33.477Z,63.43
2022-11-02T18:21:36.884Z,63.66
2022-11-02T18:26:44.226Z,64.44
2022-11-02T18:31:51.834Z,64.19
2022-11-02T18:36:55.261Z,65.49
2022-11-02T18:41:58.650Z,65.03
2022-11-02T18:47:03.407Z,65.41
2022-11-02T18:52:06.878Z,65.08
2022-11-02T18:57:10.207Z,64.98
2022-11-02T19:02:15.460Z,65.79
2022-11-02T19:07:36.530Z,65.62
2022-11-02T19:12:39.945Z,66.10
2022-11-02T19:17:45.348Z,65.54
2022-11-02T19:22:54.840Z,66.87
2022-11-02T19:27:58.276Z,66.28
2022-11-02T19:33:03.212Z,65.92
2022-11-02T19:38:06.698Z,65.91
2022-11-02T19:43:09.991Z,66.29
2022-11-02T19:48:14.814Z,66.32
2022-11-02T19:53:18.207Z,66.61
2022-11-02T19:58:21.616Z,67.19
2022-11-02T20:03:26.363Z,67.22
2022-11-02T20:08:29.738Z,66.73
2022-11-02T20:13:34.149Z,66.78
2022-11-02T20:18:40.617Z,66.01
2022-11-02T20:23:44.441Z,67.11
2022-11-02T20:28:48.566Z,66.47
2022-11-02T20:33:54.394Z,66.24
2022-11-02T20:38:57.975Z,66.47
2022-11-02T20:44:01.678Z,65.92
2022-11-02T20:49:22.455Z,65.81
2022-11-02T20:54:30.524Z,65.74
2022-11-02T20:59:33.866Z,65.73
2022-11-02T21:04:38.647Z,66.43
2022-11-02T21:09:41.976Z,66.59
2022-11-02T21:14:45.303Z,66.61
2022-11-02T21:19:57.943Z,67.00
2022-11-02T21:25:07.191Z,68.13
2022-11-02T21:30:11.536Z,70.35
2022-11-02T21:35:16.408Z,70.10
2022-11-02T21:40:19.847Z,69.91
2022-11-02T21:45:26.178Z,69.59
2022-11-02T21:50:31.234Z,69.10
2022-11-02T21:55:34.632Z,69.40
2022-11-02T22:00:55.297Z,69.08
2022-11-02T22:06:01.313Z,68.76
2022-11-02T22:11:04.649Z,68.22
2022-11-02T22:16:12.348Z,67.93
2022-11-02T22:21:18.675Z,68.30
2022-11-02T22:26:23.959Z,68.65
2022-11-02T22:31:29.830Z,69.15
2022-11-02T22:36:36.637Z,69.88
2022-11-02T22:41:41.669Z,69.48
2022-11-02T22:46:47.117Z,68.74
2022-11-02T22:51:51.981Z,68.86
2022-11-02T22:56:56.878Z,68.97
2022-11-02T23:02:00.224Z,68.37
2022-11-02T23:07:05.120Z,69.38
2022-11-02T23:12:08.596Z,69.36
2022-11-02T23:17:11.949Z,69.96
2022-11-02T23:22:34.170Z,69.87
2022-11-02T23:28:00.600Z,69.65
2022-11-02T23:33:04.230Z,69.78
2022-11-02T23:38:09.130Z,69.71
2022-11-02T23:43:12.618Z,70.30
2022-11-02T23:53:43.581Z,70.65
2022-11-02T23:58:47.486Z,70.30
